createdAt,value
2022-08-14T00:04:00.120Z,101609.95
2022-08-14T00:08:44.877Z,101609.94
2022-08-14T00:13:12.785Z,101604.11
2022-08-14T00:17:26.593Z,101600.61
2022-08-14T00:21:58.756Z,101596.60
2022-08-14T00:26:31.657Z,101596.29
2022-08-14T00:30:57.600Z,101594.27
2022-08-14T00:36:36.817Z,101599.46
2022-08-14T00:40:33.468Z,101592.54
2022-08-14T00:44:47.374Z,101590.16
2022-08-14T00:49:14.503Z,101590.45
2022-08-14T00:53:26.836Z,101584.45
2022-08-14T00:57:39.491Z,101587.05
2022-08-14T01:02:11.673Z,101583.59
2022-08-14T01:06:38.413Z,101573.34
2022-08-14T01:10:50.375Z,101575.36
2022-08-14T01:15:02.532Z,101576.15
2022-08-14T01:19:13.177Z,101576.33
2022-08-14T01:23:26.257Z,101575.31
2022-08-14T01:28:34.482Z,101577.15
2022-08-14T01:32:51.176Z,101573.75
2022-08-14T01:37:17.512Z,101575.86
2022-08-14T01:41:31.577Z,101574.45
2022-08-14T01:45:57.986Z,101573.10
2022-08-14T01:50:33.683Z,101574.39
2022-08-14T01:54:55.114Z,101572.61
2022-08-14T01:59:09.940Z,101570.46
2022-08-14T02:03:29.911Z,101572.83
2022-08-14T02:07:53.351Z,101571.45
2022-08-14T02:12:29.279Z,101566.00
2022-08-14T02:22:02.750Z,101558.23
2022-08-14T02:26:24.313Z,101562.15
2022-08-14T02:30:57.759Z,101562.43
2022-08-14T02:35:11.415Z,101559.15
2022-08-14T02:39:37.546Z,101560.84
2022-08-14T02:44:02.739Z,101554.64
2022-08-14T02:49:03.871Z,101553.62
2022-08-14T02:52:57.585Z,101554.41
2022-08-14T02:57:39.825Z,101551.84
2022-08-14T03:01:51.006Z,101552.23
2022-08-14T03:06:06.438Z,101555.48
2022-08-14T03:10:34.615Z,101554.48
2022-08-14T03:15:00.256Z,101550.41
2022-08-14T03:19:06.817Z,101546.92
2022-08-14T03:23:19.597Z,101545.69
2022-08-14T03:27:48.475Z,101547.14
2022-08-14T03:32:04.218Z,101546.76
2022-08-14T03:37:29.646Z,101544.73
2022-08-14T03:40:49.075Z,101542.73
2022-08-14T03:45:18.905Z,101539.52
2022-08-14T03:49:46.117Z,101538.46
2022-08-14T03:54:02.134Z,101544.86
2022-08-14T03:58:23.627Z,101544.78
2022-08-14T04:02:53.201Z,101538.70
2022-08-14T04:07:00.161Z,101537.10
2022-08-14T04:11:13.060Z,101534.60
2022-08-14T04:15:27.398Z,101534.77
2022-08-14T04:19:39.837Z,101531.88
2022-08-14T04:24:07.027Z,101529.70
2022-08-14T06:17:56.643Z,101510.60
2022-08-14T06:22:32.787Z,101514.65
2022-08-14T06:27:03.965Z,101516.60
2022-08-14T08:19:30.651Z,101498.02
2022-08-14T08:24:04.538Z,101490.15
2022-08-14T08:28:41.510Z,101487.81
2022-08-14T08:33:32.079Z,101481.33
2022-08-14T08:38:14.087Z,101481.30
2022-08-14T08:43:06.131Z,101476.28
2022-08-14T08:47:48.115Z,101475.67
2022-08-14T08:52:32.359Z,101469.52
2022-08-14T08:57:21.346Z,101466.58
2022-08-14T09:01:56.296Z,101465.48
2022-08-14T09:07:01.311Z,101467.80
2022-08-14T09:11:28.236Z,101467.90
2022-08-14T09:16:00.482Z,101466.80
2022-08-14T09:20:36.571Z,101459.45
2022-08-14T09:25:10.992Z,101454.41
2022-08-14T09:29:54.331Z,101450.89
2022-08-14T09:34:58.457Z,101445.60
2022-08-14T09:39:35.955Z,101439.60
2022-08-14T09:44:20.924Z,101430.92
2022-08-14T09:49:07.257Z,101425.98
2022-08-14T09:54:19.461Z,101420.93
2022-08-14T09:58:55.677Z,101406.27
2022-08-14T10:03:34.466Z,101398.08
2022-08-14T10:08:01.846Z,101396.75
2022-08-14T10:12:38.511Z,101397.82
2022-08-14T10:17:09.810Z,101399.16
2022-08-14T10:23:14.964Z,101401.44
2022-08-14T10:26:45.712Z,101395.41
2022-08-14T10:31:27.515Z,101381.92
2022-08-14T10:36:05.990Z,101378.80
2022-08-14T10:40:43.946Z,101371.79
2022-08-14T10:45:13.290Z,101363.73
2022-08-14T10:49:46.450Z,101362.71
2022-08-14T10:54:36.141Z,101355.80
2022-08-14T10:59:10.950Z,101358.65
2022-08-14T11:03:55.485Z,101354.84
2022-08-14T11:07:53.039Z,101350.64
2022-08-14T11:12:36.061Z,101357.52
2022-08-14T11:17:25.494Z,101350.64
2022-08-14T11:21:56.136Z,101350.19
2022-08-14T11:26:30.166Z,101342.35
2022-08-14T11:31:08.600Z,101345.50
2022-08-14T11:36:01.858Z,101349.79
2022-08-14T11:40:34.599Z,101345.09
2022-08-14T11:45:23.132Z,101338.73
2022-08-14T11:49:34.259Z,101333.17
2022-08-14T11:54:04.330Z,101329.48
2022-08-14T11:58:26.553Z,101327.98
2022-08-14T12:03:02.871Z,101321.36
2022-08-14T12:07:36.381Z,101319.43
2022-08-14T12:12:11.267Z,101310.05
2022-08-14T12:16:57.675Z,101302.17
2022-08-14T12:21:48.153Z,101296.34
2022-08-14T12:26:39.727Z,101299.73
2022-08-14T12:31:28.071Z,101291.90
2022-08-14T12:36:17.935Z,101287.98
2022-08-14T12:40:53.798Z,101279.18
2022-08-14T12:45:30.749Z,101278.91
2022-08-14T12:50:03.382Z,101277.29
2022-08-14T12:55:01.548Z,101269.80
2022-08-14T12:58:28.952Z,101270.88
2022-08-14T13:02:32.418Z,101270.02
2022-08-14T13:06:51.860Z,101266.30
2022-08-14T13:11:26.269Z,101253.64
2022-08-14T13:14:53.055Z,101247.29
2022-08-14T13:18:30.685Z,101242.54
2022-08-14T13:22:38.417Z,101238.08
2022-08-14T13:26:41.491Z,101229.54
2022-08-14T13:31:19.743Z,101225.73
2022-08-14T13:35:48.930Z,101214.55
2022-08-14T13:40:15.694Z,101208.98
2022-08-14T13:44:42.874Z,101200.54
2022-08-14T13:49:00.629Z,101197.19
2022-08-14T13:54:07.189Z,101190.70
2022-08-14T13:58:41.717Z,101177.43
2022-08-14T14:03:20.231Z,101168.39
2022-08-14T14:07:54.910Z,101168.23
2022-08-14T14:12:37.690Z,101160.55
2022-08-14T14:22:10.651Z,101147.19
2022-08-14T14:27:39.532Z,101142.45
2022-08-14T14:32:04.239Z,101141.63
2022-08-14T14:36:42.510Z,101144.69
2022-08-14T14:41:05.657Z,101136.58
2022-08-14T14:44:58.898Z,101124.51
2022-08-14T14:49:21.913Z,101120.73
2022-08-14T14:53:56.306Z,101115.98
2022-08-14T14:58:47.034Z,101111.06
2022-08-14T15:03:34.689Z,101107.98
2022-08-14T15:07:57.391Z,101104.94
2022-08-14T15:11:13.627Z,101100.62
2022-08-14T15:15:37.840Z,101093.15
2022-08-14T15:25:30.892Z,101092.97
2022-08-14T15:30:04.296Z,101089.74
2022-08-14T15:34:51.189Z,101085.78
2022-08-14T15:39:29.171Z,101087.70
2022-08-14T15:43:39.806Z,101096.36
2022-08-14T15:47:56.497Z,101095.91
2022-08-14T15:52:48.973Z,101101.52
2022-08-14T15:57:36.198Z,101100.41
2022-08-14T16:08:03.648Z,101090.48
2022-08-14T16:12:41.502Z,101086.78
2022-08-14T16:17:21.128Z,101087.98
2022-08-14T16:22:02.214Z,101093.63
2022-08-14T16:31:44.862Z,101077.77
2022-08-14T16:36:30.759Z,101062.98
2022-08-14T16:41:04.631Z,101070.23
2022-08-14T16:45:43.343Z,101083.83
2022-08-14T16:50:40.442Z,101075.17
2022-08-14T16:55:30.417Z,101069.48
2022-08-14T17:00:07.297Z,101058.44
2022-08-14T17:04:56.409Z,101056.52
2022-08-14T17:09:24.032Z,101065.67
2022-08-14T17:14:02.092Z,101054.83
2022-08-14T17:23:33.329Z,101056.63
2022-08-14T17:28:50.128Z,101052.96
2022-08-14T17:33:03.310Z,101054.16
2022-08-14T17:43:41.180Z,101040.42
2022-08-14T17:49:14.260Z,101037.85
2022-08-14T17:53:09.366Z,101031.97
2022-08-14T17:57:48.925Z,101040.24
2022-08-14T18:02:36.495Z,101045.52
2022-08-14T18:07:16.126Z,101049.72
2022-08-14T18:11:52.268Z,101065.36
2022-08-14T18:16:41.819Z,101117.79
2022-08-14T18:21:23.626Z,101121.55
2022-08-14T18:26:04.855Z,101118.67
2022-08-14T18:40:42.138Z,101099.34
2022-08-14T18:45:01.231Z,101096.72
2022-08-14T18:49:44.519Z,101103.20
2022-08-14T18:57:20.832Z,101084.33
2022-08-14T19:01:29.029Z,101085.98
2022-08-14T19:05:36.293Z,101091.59
2022-08-14T19:10:09.105Z,101091.12
2022-08-14T19:15:04.718Z,101084.95
2022-08-14T19:23:59.448Z,101071.53
2022-08-14T19:28:34.549Z,101070.05
2022-08-14T19:33:14.297Z,101073.45
2022-08-14T19:37:46.794Z,101067.20
2022-08-14T19:42:28.530Z,101072.08
2022-08-14T19:47:06.042Z,101074.44
2022-08-14T19:51:55.790Z,101077.55
2022-08-14T19:56:45.902Z,101075.00
2022-08-14T20:01:38.838Z,101076.14
2022-08-14T20:06:11.330Z,101079.25
2022-08-14T20:11:04.209Z,101077.23
2022-08-14T20:20:31.656Z,101065.52
2022-08-14T20:25:22.170Z,101065.95
2022-08-14T20:30:28.935Z,101064.68
2022-08-14T20:35:14.984Z,101060.52
2022-08-14T20:39:58.373Z,101068.05
2022-08-14T20:44:30.882Z,101069.45
2022-08-14T20:49:06.981Z,101076.86
2022-08-14T20:53:40.398Z,101072.02
2022-08-14T20:58:43.332Z,101075.98
2022-08-14T21:03:10.395Z,101075.89
2022-08-14T21:08:00.525Z,101074.52
2022-08-14T21:13:09.335Z,101075.95
2022-08-14T21:17:37.453Z,101070.65
2022-08-14T21:22:09.149Z,101070.42
2022-08-14T21:27:04.209Z,101069.13
2022-08-14T21:31:55.687Z,101067.38
2022-08-14T21:36:42.080Z,101061.38
2022-08-14T21:41:42.653Z,101063.44
2022-08-14T21:46:11.584Z,101060.85
2022-08-14T21:51:01.397Z,101050.41
2022-08-14T21:55:38.767Z,101043.60
2022-08-14T22:00:35.870Z,101042.99
2022-08-14T22:05:00.742Z,101034.13
2022-08-14T22:09:36.956Z,101025.75
2022-08-14T22:14:25.967Z,101029.27
2022-08-14T22:19:13.665Z,101026.35
2022-08-14T22:23:46.208Z,101021.15
2022-08-14T22:27:58.670Z,101014.85
2022-08-14T22:32:56.773Z,101012.98
2022-08-14T22:37:24.078Z,101009.98
2022-08-14T22:42:21.300Z,101003.56
2022-08-14T22:46:34.897Z,100998.33
2022-08-14T22:50:48.721Z,100995.57
2022-08-14T22:55:14.958Z,100988.70
2022-08-14T23:00:01.707Z,100987.47
2022-08-14T23:04:42.796Z,100983.52
2022-08-14T23:09:36.427Z,100983.70
2022-08-14T23:14:04.746Z,100982.11
2022-08-14T23:18:16.831Z,100972.49
2022-08-14T23:22:48.382Z,100970.62
2022-08-14T23:27:02.943Z,100966.02
2022-08-14T23:31:34.426Z,100962.57
2022-08-14T23:36:31.516Z,100962.80
2022-08-14T23:40:37.357Z,100959.13
2022-08-14T23:44:48.647Z,100958.69
2022-08-14T23:48:55.662Z,100956.82
2022-08-14T23:53:48.134Z,100955.91
2022-08-14T23:58:29.762Z,100953.66
